sensor_id;sensor_type;location;lat;lon;timestamp;pressure;altitude;pressure_sealevel;temperature;humidity
61908;BME280;47864;52.526;19.672;2023-06-22T00:00:17;154439.91;;;21.71;100.00
61908;BME280;47864;52.526;19.672;2023-06-22T00:02:18;154442.47;;;21.72;100.00
61908;BME280;47864;52.526;19.672;2023-06-22T00:04:20;154422.09;;;21.63;100.00
61908;BME280;47864;52.526;19.672;2023-06-22T00:06:22;154424.66;;;21.64;100.00
61908;BME280;47864;52.526;19.672;2023-06-22T00:08:23;154432.25;;;21.68;100.00
61908;BME280;47864;52.526;19.672;2023-06-22T00:10:25;154382.63;;;21.48;100.00
61908;BME280;47864;52.526;19.672;2023-06-22T00:12:27;154354.56;;;21.37;100.00
61908;BME280;47864;52.526;19.672;2023-06-22T00:14:28;154341.88;;;21.32;100.00
61908;BME280;47864;52.526;19.672;2023-06-22T00:16:32;154335.47;;;21.29;100.00
61908;BME280;47864;52.526;19.672;2023-06-22T00:18:33;154340.59;;;21.31;100.00
61908;BME280;47864;52.526;19.672;2023-06-22T00:20:35;154329.09;;;21.26;100.00
61908;BME280;47864;52.526;19.672;2023-06-22T00:22:36;154329.09;;;21.26;100.00
61908;BME280;47864;52.526;19.672;2023-06-22T00:24:38;154294.69;;;21.13;100.00
61908;BME280;47864;52.526;19.672;2023-06-22T00:26:40;154288.31;;;21.10;100.00
61908;BME280;47864;52.526;19.672;2023-06-22T00:28:41;154290.84;;;21.11;100.00
61908;BME280;47864;52.526;19.672;2023-06-22T00:30:43;154267.94;;;21.02;100.00
61908;BME280;47864;52.526;19.672;2023-06-22T00:32:45;154274.31;;;21.05;100.00
61908;BME280;47864;52.526;19.672;2023-06-22T00:34:47;154241.22;;;20.92;100.00
61908;BME280;47864;52.526;19.672;2023-06-22T00:36:48;154237.41;;;20.90;100.00
61908;BME280;47864;52.526;19.672;2023-06-22T00:38:50;154215.75;;;20.81;100.00
61908;BME280;47864;52.526;19.672;2023-06-22T00:40:51;154214.47;;;20.81;100.00
61908;BME280;47864;52.526;19.672;2023-06-22T00:42:53;154200.50;;;20.75;100.00
61908;BME280;47864;52.526;19.672;2023-06-22T00:44:55;154189.00;;;20.71;100.00
61908;BME280;47864;52.526;19.672;2023-06-22T00:46:57;154208.09;;;20.78;100.00
61908;BME280;47864;52.526;19.672;2023-06-22T00:48:59;154191.56;;;20.72;100.00
61908;BME280;47864;52.526;19.672;2023-06-22T00:51:00;154211.94;;;20.80;100.00
61908;BME280;47864;52.526;19.672;2023-06-22T00:53:06;154205.53;;;20.77;100.00
61908;BME280;47864;52.526;19.672;2023-06-22T00:55:09;154177.56;;;20.66;100.00
61908;BME280;47864;52.526;19.672;2023-06-22T00:57:12;154167.38;;;20.62;100.00
61908;BME280;47864;52.526;19.672;2023-06-22T00:59:14;154159.72;;;20.59;100.00
61908;BME280;47864;52.526;19.672;2023-06-22T01:01:15;154166.09;;;20.62;100.00
61908;BME280;47864;52.526;19.672;2023-06-22T01:03:17;154168.63;;;20.63;100.00
61908;BME280;47864;52.526;19.672;2023-06-22T01:05:20;154154.66;;;20.57;100.00
61908;BME280;47864;52.526;19.672;2023-06-22T01:07:38;154120.25;;;20.43;100.00
61908;BME280;47864;52.526;19.672;2023-06-22T01:09:59;154126.63;;;20.46;100.00
61908;BME280;47864;52.526;19.672;2023-06-22T01:12:06;154096.13;;;20.34;100.00
61908;BME280;47864;52.526;19.672;2023-06-22T01:14:24;154164.81;;;20.61;100.00
61908;BME280;47864;52.526;19.672;2023-06-22T01:16:33;154163.53;;;20.61;100.00
61908;BME280;47864;52.526;19.672;2023-06-22T01:18:39;154141.91;;;20.52;100.00
61908;BME280;47864;52.526;19.672;2023-06-22T01:20:42;154155.94;;;20.58;100.00
61908;BME280;47864;52.526;19.672;2023-06-22T01:23:09;154162.25;;;20.60;100.00
61908;BME280;47864;52.526;19.672;2023-06-22T01:25:53;154141.91;;;20.52;100.00
61908;BME280;47864;52.526;19.672;2023-06-22T01:30:06;154083.31;;;20.29;100.00
61908;BME280;47864;52.526;19.672;2023-06-22T01:32:09;154065.50;;;20.22;100.00
61908;BME280;47864;52.526;19.672;2023-06-22T01:34:12;154074.44;;;20.25;100.00
61908;BME280;47864;52.526;19.672;2023-06-22T01:36:14;154089.69;;;20.31;100.00
61908;BME280;47864;52.526;19.672;2023-06-22T01:38:17;154085.88;;;20.30;100.00
61908;BME280;47864;52.526;19.672;2023-06-22T01:40:19;154061.69;;;20.20;100.00
61908;BME280;47864;52.526;19.672;2023-06-22T01:42:23;154064.22;;;20.21;100.00
61908;BME280;47864;52.526;19.672;2023-06-22T01:44:26;154056.56;;;20.18;100.00
61908;BME280;47864;52.526;19.672;2023-06-22T01:46:28;154057.84;;;20.19;100.00
61908;BME280;47864;52.526;19.672;2023-06-22T01:48:31;154076.94;;;20.26;100.00
61908;BME280;47864;52.526;19.672;2023-06-22T01:50:32;154057.84;;;20.19;100.00
61908;BME280;47864;52.526;19.672;2023-06-22T01:52:34;154064.22;;;20.21;100.00
61908;BME280;47864;52.526;19.672;2023-06-22T01:54:37;154051.53;;;20.16;100.00
61908;BME280;47864;52.526;19.672;2023-06-22T01:56:39;154064.22;;;20.21;100.00
61908;BME280;47864;52.526;19.672;2023-06-22T01:58:48;154052.78;;;20.17;100.00
61908;BME280;47864;52.526;19.672;2023-06-22T02:00:56;154068.06;;;20.23;100.00
61908;BME280;47864;52.526;19.672;2023-06-22T02:03:10;154060.41;;;20.20;100.00
61908;BME280;47864;52.526;19.672;2023-06-22T02:05:16;154057.84;;;20.19;100.00
61908;BME280;47864;52.526;19.672;2023-06-22T02:07:20;154061.69;;;20.20;100.00
61908;BME280;47864;52.526;19.672;2023-06-22T02:09:25;154047.69;;;20.14;100.00
61908;BME280;47864;52.526;19.672;2023-06-22T02:11:30;154057.84;;;20.19;100.00
61908;BME280;47864;52.526;19.672;2023-06-22T02:13:33;154040.03;;;20.11;100.00
61908;BME280;47864;52.526;19.672;2023-06-22T02:15:35;154024.78;;;20.05;100.00
61908;BME280;47864;52.526;19.672;2023-06-22T02:17:36;154051.53;;;20.16;100.00
61908;BME280;47864;52.526;19.672;2023-06-22T02:19:38;154027.34;;;20.06;100.00
61908;BME280;47864;52.526;19.672;2023-06-22T02:21:42;153991.72;;;19.92;100.00
61908;BME280;47864;52.526;19.672;2023-06-22T02:23:43;154005.69;;;19.98;100.00
61908;BME280;47864;52.526;19.672;2023-06-22T02:25:45;153966.25;;;19.82;100.00
61908;BME280;47864;52.526;19.672;2023-06-22T02:27:46;153994.22;;;19.93;100.00
61908;BME280;47864;52.526;19.672;2023-06-22T02:29:48;154027.34;;;20.06;100.00
61908;BME280;47864;52.526;19.672;2023-06-22T02:31:50;154015.84;;;20.02;100.00
61908;BME280;47864;52.526;19.672;2023-06-22T02:33:51;154031.16;;;20.08;100.00
61908;BME280;47864;52.526;19.672;2023-06-22T02:35:53;154022.22;;;20.04;100.00
61908;BME280;47864;52.526;19.672;2023-06-22T02:37:54;154005.69;;;19.98;100.00
61908;BME280;47864;52.526;19.672;2023-06-22T02:39:56;153991.72;;;19.92;100.00
61908;BME280;47864;52.526;19.672;2023-06-22T02:41:58;154006.97;;;19.98;100.00
61908;BME280;47864;52.526;19.672;2023-06-22T02:43:59;154008.25;;;19.99;100.00
61908;BME280;47864;52.526;19.672;2023-06-22T02:46:01;153993.00;;;19.93;100.00
61908;BME280;47864;52.526;19.672;2023-06-22T02:48:03;153963.72;;;19.81;100.00
61908;BME280;47864;52.526;19.672;2023-06-22T02:50:05;153973.88;;;19.85;100.00
61908;BME280;47864;52.526;19.672;2023-06-22T02:52:06;153982.78;;;19.89;100.00
61908;BME280;47864;52.526;19.672;2023-06-22T02:54:08;153984.06;;;19.89;100.00
61908;BME280;47864;52.526;19.672;2023-06-22T02:56:09;153970.09;;;19.84;100.00
61908;BME280;47864;52.526;19.672;2023-06-22T02:58:11;153982.78;;;19.89;100.00
61908;BME280;47864;52.526;19.672;2023-06-22T03:00:13;153993.00;;;19.93;100.00
61908;BME280;47864;52.526;19.672;2023-06-22T03:02:15;153951.00;;;19.76;100.00
61908;BME280;47864;52.526;19.672;2023-06-22T03:04:18;153962.44;;;19.81;100.00
61908;BME280;47864;52.526;19.672;2023-06-22T03:06:20;153961.16;;;19.80;100.00
61908;BME280;47864;52.526;19.672;2023-06-22T03:08:22;153961.16;;;19.80;100.00
61908;BME280;47864;52.526;19.672;2023-06-22T03:10:23;153942.09;;;19.72;100.00
61908;BME280;47864;52.526;19.672;2023-06-22T03:12:25;153977.69;;;19.87;100.00
61908;BME280;47864;52.526;19.672;2023-06-22T03:14:27;153959.88;;;19.80;100.00
61908;BME280;47864;52.526;19.672;2023-06-22T03:16:28;153953.50;;;19.77;100.00
61908;BME280;47864;52.526;19.672;2023-06-22T03:18:30;153978.97;;;19.87;100.00
61908;BME280;47864;52.526;19.672;2023-06-22T03:20:32;153962.44;;;19.81;100.00
61908;BME280;47864;52.526;19.672;2023-06-22T03:22:33;153934.44;;;19.69;100.00
61908;BME280;47864;52.526;19.672;2023-06-22T03:24:35;153985.34;;;19.90;100.00
61908;BME280;47864;52.526;19.672;2023-06-22T03:26:36;153972.63;;;19.85;100.00
61908;BME280;47864;52.526;19.672;2023-06-22T03:28:38;153987.91;;;19.91;100.00
61908;BME280;47864;52.526;19.672;2023-06-22T03:30:39;154000.59;;;19.96;100.00
61908;BME280;47864;52.526;19.672;2023-06-22T03:32:41;153985.34;;;19.90;100.00
61908;BME280;47864;52.526;19.672;2023-06-22T03:34:42;153986.63;;;19.90;100.00
61908;BME280;47864;52.526;19.672;2023-06-22T03:36:44;153972.63;;;19.85;100.00
61908;BME280;47864;52.526;19.672;2023-06-22T03:38:47;153972.63;;;19.85;100.00
61908;BME280;47864;52.526;19.672;2023-06-22T03:40:48;153978.97;;;19.87;100.00
61908;BME280;47864;52.526;19.672;2023-06-22T03:42:50;154014.59;;;20.01;100.00
61908;BME280;47864;52.526;19.672;2023-06-22T03:44:52;153976.41;;;19.86;100.00
61908;BME280;47864;52.526;19.672;2023-06-22T03:46:53;153996.78;;;19.94;100.00
61908;BME280;47864;52.526;19.672;2023-06-22T03:48:55;153999.31;;;19.95;100.00
61908;BME280;47864;52.526;19.672;2023-06-22T03:50:59;154022.22;;;20.04;100.00
61908;BME280;47864;52.526;19.672;2023-06-22T03:53:00;153987.91;;;19.91;100.00
61908;BME280;47864;52.526;19.672;2023-06-22T03:55:02;154034.94;;;20.09;100.00
61908;BME280;47864;52.526;19.672;2023-06-22T03:57:04;154031.16;;;20.08;100.00
61908;BME280;47864;52.526;19.672;2023-06-22T03:59:05;154060.41;;;20.20;100.00
61908;BME280;47864;52.526;19.672;2023-06-22T04:01:07;154069.34;;;20.23;100.00
61908;BME280;47864;52.526;19.672;2023-06-22T04:03:08;154042.59;;;20.12;100.00
61908;BME280;47864;52.526;19.672;2023-06-22T04:05:10;154071.88;;;20.24;100.00
61908;BME280;47864;52.526;19.672;2023-06-22T04:07:12;154096.13;;;20.34;100.00
61908;BME280;47864;52.526;19.672;2023-06-22T04:09:13;154110.09;;;20.39;100.00
61908;BME280;47864;52.526;19.672;2023-06-22T04:11:15;154111.38;;;20.40;100.00
61908;BME280;47864;52.526;19.672;2023-06-22T04:13:17;154134.28;;;20.49;100.00
61908;BME280;47864;52.526;19.672;2023-06-22T04:15:18;154147.00;;;20.54;100.00
61908;BME280;47864;52.526;19.672;2023-06-22T04:17:20;154120.25;;;20.43;100.00
61908;BME280;47864;52.526;19.672;2023-06-22T04:19:21;154113.94;;;20.41;100.00
61908;BME280;47864;52.526;19.672;2023-06-22T04:21:23;154139.34;;;20.51;100.00
61908;BME280;47864;52.526;19.672;2023-06-22T04:23:24;154157.22;;;20.58;100.00
61908;BME280;47864;52.526;19.672;2023-06-22T04:25:26;154178.84;;;20.67;100.00
61908;BME280;47864;52.526;19.672;2023-06-22T04:27:27;154172.47;;;20.64;100.00
61908;BME280;47864;52.526;19.672;2023-06-22T04:29:29;154204.28;;;20.77;100.00
61908;BME280;47864;52.526;19.672;2023-06-22T04:31:32;154229.75;;;20.87;100.00
61908;BME280;47864;52.526;19.672;2023-06-22T04:33:33;154247.56;;;20.94;100.00
61908;BME280;47864;52.526;19.672;2023-06-22T04:35:35;154238.69;;;20.91;100.00
61908;BME280;47864;52.526;19.672;2023-06-22T04:37:37;154236.13;;;20.89;100.00
61908;BME280;47864;52.526;19.672;2023-06-22T04:39:38;154259.03;;;20.99;100.00
61908;BME280;47864;52.526;19.672;2023-06-22T04:41:40;154248.84;;;20.95;100.00
61908;BME280;47864;52.526;19.672;2023-06-22T04:43:42;154321.50;;;21.23;100.00
61908;BME280;47864;52.526;19.672;2023-06-22T04:45:44;154290.84;;;21.11;100.00
61908;BME280;47864;52.526;19.672;2023-06-22T04:47:45;154276.88;;;21.06;100.00
61908;BME280;47864;52.526;19.672;2023-06-22T04:51:52;154324.03;;;21.24;100.00
61908;BME280;47864;52.526;19.672;2023-06-22T04:56:04;154318.94;;;21.22;100.00
61908;BME280;47864;52.526;19.672;2023-06-22T04:58:05;154316.38;;;21.21;100.00
61908;BME280;47864;52.526;19.672;2023-06-22T05:00:07;154316.38;;;21.21;100.00
61908;BME280;47864;52.526;19.672;2023-06-22T05:02:09;154304.91;;;21.17;100.00
61908;BME280;47864;52.526;19.672;2023-06-22T05:04:11;154275.59;;;21.05;100.00
61908;BME280;47864;52.526;19.672;2023-06-22T05:06:13;154262.81;;;21.00;100.00
61908;BME280;47864;52.526;19.672;2023-06-22T05:08:14;154287.03;;;21.10;100.00
61908;BME280;47864;52.526;19.672;2023-06-22T05:10:16;154274.31;;;21.05;100.00
61908;BME280;47864;52.526;19.672;2023-06-22T05:12:17;154307.44;;;21.18;100.00
61908;BME280;47864;52.526;19.672;2023-06-22T05:14:19;154241.22;;;20.92;100.00
61908;BME280;47864;52.526;19.672;2023-06-22T05:16:21;154255.22;;;20.97;100.00
61908;BME280;47864;52.526;19.672;2023-06-22T05:18:23;154273.03;;;21.04;100.00
61908;BME280;47864;52.526;19.672;2023-06-22T05:20:25;154315.09;;;21.21;100.00
61908;BME280;47864;52.526;19.672;2023-06-22T05:22:27;154355.84;;;21.37;100.00
61908;BME280;47864;52.526;19.672;2023-06-22T05:24:28;154410.59;;;21.59;100.00
61908;BME280;47864;52.526;19.672;2023-06-22T05:26:31;154401.72;;;21.55;100.00
61908;BME280;47864;52.526;19.672;2023-06-22T05:28:34;154414.44;;;21.60;100.00
61908;BME280;47864;52.526;19.672;2023-06-22T05:30:35;154484.50;;;21.88;100.00
61908;BME280;47864;52.526;19.672;2023-06-22T05:32:37;154427.19;;;21.66;100.00
61908;BME280;47864;52.526;19.672;2023-06-22T05:34:39;154427.19;;;21.66;100.00
61908;BME280;47864;52.526;19.672;2023-06-22T05:36:40;154360.97;;;21.39;100.00
61908;BME280;47864;52.526;19.672;2023-06-22T05:38:42;154362.25;;;21.40;100.00
61908;BME280;47864;52.526;19.672;2023-06-22T05:40:44;154386.44;;;21.49;100.00
61908;BME280;47864;52.526;19.672;2023-06-22T05:42:45;154422.09;;;21.63;100.00
61908;BME280;47864;52.526;19.672;2023-06-22T05:44:47;154442.47;;;21.72;100.00
61908;BME280;47864;52.526;19.672;2023-06-22T05:46:48;154427.19;;;21.66;100.00
61908;BME280;47864;52.526;19.672;2023-06-22T05:48:49;154481.97;;;21.87;100.00
61908;BME280;47864;52.526;19.672;2023-06-22T05:50:51;154504.91;;;21.96;100.00
61908;BME280;47864;52.526;19.672;2023-06-22T05:52:53;154623.44;;;22.44;100.00
61908;BME280;47864;52.526;19.672;2023-06-22T05:54:54;154675.72;;;22.64;100.00
61908;BME280;47864;52.526;19.672;2023-06-22T05:56:56;154652.75;;;22.55;100.00
61908;BME280;47864;52.526;19.672;2023-06-22T05:58:58;154611.97;;;22.39;100.00
61908;BME280;47864;52.526;19.672;2023-06-22T06:00:59;154610.69;;;22.38;100.00
61908;BME280;47864;52.526;19.672;2023-06-22T06:03:01;154628.53;;;22.46;100.00
61908;BME280;47864;52.526;19.672;2023-06-22T06:05:03;154655.31;;;22.56;100.00
61908;BME280;47864;52.526;19.672;2023-06-22T06:07:05;154662.94;;;22.59;100.00
61908;BME280;47864;52.526;19.672;2023-06-22T06:09:06;154719.03;;;22.82;100.00
61908;BME280;47864;52.526;19.672;2023-06-22T06:11:08;154656.53;;;22.57;100.00
61908;BME280;47864;52.526;19.672;2023-06-22T06:13:09;154651.47;;;22.55;100.00
61908;BME280;47864;52.526;19.672;2023-06-22T06:15:11;154694.81;;;22.72;100.00
61908;BME280;47864;52.526;19.672;2023-06-22T06:17:13;154648.94;;;22.54;100.00
61908;BME280;47864;52.526;19.672;2023-06-22T06:19:14;154699.94;;;22.74;100.00
61908;BME280;47864;52.526;19.672;2023-06-22T06:21:16;154759.84;;;22.98;100.00
61908;BME280;47864;52.526;19.672;2023-06-22T06:23:18;154768.78;;;23.01;100.00
61908;BME280;47864;52.526;19.672;2023-06-22T06:25:20;154805.75;;;23.16;100.00
61908;BME280;47864;52.526;19.672;2023-06-22T06:27:21;154855.47;;;23.36;100.00
61908;BME280;47864;52.526;19.672;2023-06-22T06:29:23;154902.72;;;23.55;100.00
61908;BME280;47864;52.526;19.672;2023-06-22T06:31:25;154914.19;;;23.59;100.00
61908;BME280;47864;52.526;19.672;2023-06-22T06:33:26;155013.66;;;23.99;100.00
61908;BME280;47864;52.526;19.672;2023-06-22T06:35:28;155054.47;;;24.15;100.00
61908;BME280;47864;52.526;19.672;2023-06-22T06:37:30;155073.66;;;24.22;100.00
61908;BME280;47864;52.526;19.672;2023-06-22T06:39:31;155205.09;;;24.75;100.00
61908;BME280;47864;52.526;19.672;2023-06-22T06:41:33;155127.28;;;24.44;99.80
61908;BME280;47864;52.526;19.672;2023-06-22T06:43:35;155173.22;;;24.62;98.83
61908;BME280;47864;52.526;19.672;2023-06-22T06:45:36;155215.34;;;24.79;98.14
61908;BME280;47864;52.526;19.672;2023-06-22T06:47:39;155111.97;;;24.38;99.86
61908;BME280;47864;52.526;19.672;2023-06-22T06:49:40;155147.69;;;24.52;100.00
61908;BME280;47864;52.526;19.672;2023-06-22T06:51:42;155145.13;;;24.51;98.71
61908;BME280;47864;52.526;19.672;2023-06-22T06:53:44;155243.38;;;24.90;99.78
61908;BME280;47864;52.526;19.672;2023-06-22T06:55:45;155247.25;;;24.91;96.72
61908;BME280;47864;52.526;19.672;2023-06-22T06:57:47;155300.84;;;25.13;96.73
61908;BME280;47864;52.526;19.672;2023-06-22T06:59:49;155187.25;;;24.68;99.58
61908;BME280;47864;52.526;19.672;2023-06-22T07:01:50;155233.19;;;24.86;97.20
61908;BME280;47864;52.526;19.672;2023-06-22T07:03:52;155275.38;;;25.02;95.71
61908;BME280;47864;52.526;19.672;2023-06-22T07:05:54;155369.81;;;25.40;93.47
61908;BME280;47864;52.526;19.672;2023-06-22T07:07:56;155382.56;;;25.45;91.93
61908;BME280;47864;52.526;19.672;2023-06-22T07:09:58;155376.19;;;25.43;91.58
61908;BME280;47864;52.526;19.672;2023-06-22T07:11:59;155224.25;;;24.82;96.32
61908;BME280;47864;52.526;19.672;2023-06-22T07:14:01;155355.78;;;25.34;91.82
61908;BME280;47864;52.526;19.672;2023-06-22T07:16:02;155365.97;;;25.38;90.56
61908;BME280;47864;52.526;19.672;2023-06-22T07:18:04;155437.53;;;25.67;90.75
61908;BME280;47864;52.526;19.672;2023-06-22T07:20:06;155441.38;;;25.68;91.33
61908;BME280;47864;52.526;19.672;2023-06-22T07:22:08;155583.13;;;26.25;87.57
61908;BME280;47864;52.526;19.672;2023-06-22T07:24:10;155442.66;;;25.69;87.13
61908;BME280;47864;52.526;19.672;2023-06-22T07:26:11;155468.16;;;25.79;86.69
61908;BME280;47864;52.526;19.672;2023-06-22T07:28:13;155644.47;;;26.49;84.33
61908;BME280;47864;52.526;19.672;2023-06-22T07:30:14;155578.00;;;26.23;83.48
61908;BME280;47864;52.526;19.672;2023-06-22T07:32:16;155650.88;;;26.51;79.79
61908;BME280;47864;52.526;19.672;2023-06-22T07:34:18;155677.69;;;26.62;79.22
61908;BME280;47864;52.526;19.672;2023-06-22T07:36:20;155590.81;;;26.28;81.50
61908;BME280;47864;52.526;19.672;2023-06-22T07:38:24;155668.75;;;26.59;81.55
61908;BME280;47864;52.526;19.672;2023-06-22T07:40:25;155630.44;;;26.43;79.91
61908;BME280;47864;52.526;19.672;2023-06-22T07:42:27;155629.16;;;26.43;80.09
61908;BME280;47864;52.526;19.672;2023-06-22T07:44:29;155810.63;;;27.15;79.00
61908;BME280;47864;52.526;19.672;2023-06-22T07:46:30;155810.63;;;27.15;76.67
61908;BME280;47864;52.526;19.672;2023-06-22T07:48:32;155557.56;;;26.14;79.00
61908;BME280;47864;52.526;19.672;2023-06-22T07:50:34;155782.50;;;27.04;75.37
61908;BME280;47864;52.526;19.672;2023-06-22T07:52:35;155603.59;;;26.33;78.69
61908;BME280;47864;52.526;19.672;2023-06-22T07:54:37;155575.44;;;26.22;79.73
61908;BME280;47864;52.526;19.672;2023-06-22T07:56:39;155592.09;;;26.28;79.53
61908;BME280;47864;52.526;19.672;2023-06-22T07:58:40;155606.16;;;26.34;79.65
61908;BME280;47864;52.526;19.672;2023-06-22T08:00:42;155631.69;;;26.44;80.75
61908;BME280;47864;52.526;19.672;2023-06-22T08:02:45;155574.16;;;26.21;78.70
61908;BME280;47864;52.526;19.672;2023-06-22T08:04:47;155695.56;;;26.69;75.33
61908;BME280;47864;52.526;19.672;2023-06-22T08:06:49;155716.00;;;26.77;77.19
61908;BME280;47864;52.526;19.672;2023-06-22T08:08:50;155764.63;;;26.97;78.28
61908;BME280;47864;52.526;19.672;2023-06-22T08:10:52;155805.50;;;27.13;74.91
61908;BME280;47864;52.526;19.672;2023-06-22T08:12:54;155705.81;;;26.73;74.27
61908;BME280;47864;52.526;19.672;2023-06-22T08:14:55;155788.91;;;27.06;73.93
61908;BME280;47864;52.526;19.672;2023-06-22T08:16:57;155762.06;;;26.96;75.36
61908;BME280;47864;52.526;19.672;2023-06-22T08:18:58;155834.94;;;27.24;74.29
61908;BME280;47864;52.526;19.672;2023-06-22T08:21:00;155901.34;;;27.51;73.65
61908;BME280;47864;52.526;19.672;2023-06-22T08:23:05;155813.19;;;27.16;73.13
61908;BME280;47864;52.526;19.672;2023-06-22T08:25:07;155813.19;;;27.16;73.17
61908;BME280;47864;52.526;19.672;2023-06-22T08:27:10;155671.31;;;26.60;74.16
61908;BME280;47864;52.526;19.672;2023-06-22T08:29:11;155613.81;;;26.37;76.07
61908;BME280;47864;52.526;19.672;2023-06-22T08:31:13;155699.41;;;26.71;75.12
61908;BME280;47864;52.526;19.672;2023-06-22T08:33:14;155630.44;;;26.43;75.07
61908;BME280;47864;52.526;19.672;2023-06-22T08:35:28;155648.31;;;26.50;76.96
61908;BME280;47864;52.526;19.672;2023-06-22T08:37:30;155648.31;;;26.50;75.51
61908;BME280;47864;52.526;19.672;2023-06-22T08:39:32;155703.25;;;26.72;75.05
61908;BME280;47864;52.526;19.672;2023-06-22T08:41:36;155648.31;;;26.50;75.39
61908;BME280;47864;52.526;19.672;2023-06-22T08:43:38;155777.38;;;27.02;74.30
61908;BME280;47864;52.526;19.672;2023-06-22T08:45:40;155759.50;;;26.95;73.73
61908;BME280;47864;52.526;19.672;2023-06-22T08:47:42;155809.34;;;27.14;72.01
61908;BME280;47864;52.526;19.672;2023-06-22T08:49:44;155795.31;;;27.09;72.07
61908;BME280;47864;52.526;19.672;2023-06-22T08:51:46;155787.63;;;27.06;72.37
61908;BME280;47864;52.526;19.672;2023-06-22T08:53:49;155731.38;;;26.83;75.63
61908;BME280;47864;52.526;19.672;2023-06-22T08:55:50;155675.13;;;26.61;75.67
61908;BME280;47864;52.526;19.672;2023-06-22T08:57:52;155616.38;;;26.38;75.91
61908;BME280;47864;52.526;19.672;2023-06-22T08:59:53;155649.59;;;26.51;74.71
61908;BME280;47864;52.526;19.672;2023-06-22T09:01:55;155686.66;;;26.66;76.44
61908;BME280;47864;52.526;19.672;2023-06-22T09:03:58;155687.94;;;26.66;74.44
61908;BME280;47864;52.526;19.672;2023-06-22T09:06:00;155613.81;;;26.37;76.68
61908;BME280;47864;52.526;19.672;2023-06-22T09:08:02;155676.41;;;26.62;76.04
61908;BME280;47864;52.526;19.672;2023-06-22T09:10:05;155662.38;;;26.56;75.63
61908;BME280;47864;52.526;19.672;2023-06-22T09:12:07;155556.28;;;26.14;77.06
61908;BME280;47864;52.526;19.672;2023-06-22T09:14:10;155622.75;;;26.40;77.19
61908;BME280;47864;52.526;19.672;2023-06-22T09:16:12;155626.59;;;26.42;76.84
61908;BME280;47864;52.526;19.672;2023-06-22T09:18:13;155698.13;;;26.70;78.05
61908;BME280;47864;52.526;19.672;2023-06-22T09:20:16;155611.25;;;26.36;76.60
61908;BME280;47864;52.526;19.672;2023-06-22T09:22:17;155658.53;;;26.55;75.26
61908;BME280;47864;52.526;19.672;2023-06-22T09:24:19;155606.16;;;26.34;75.37
61908;BME280;47864;52.526;19.672;2023-06-22T09:26:21;155585.72;;;26.26;76.06
61908;BME280;47864;52.526;19.672;2023-06-22T09:28:22;155731.38;;;26.83;75.13
61908;BME280;47864;52.526;19.672;2023-06-22T09:30:24;155689.22;;;26.67;76.58
61908;BME280;47864;52.526;19.672;2023-06-22T09:32:25;155682.81;;;26.64;74.99
61908;BME280;47864;52.526;19.672;2023-06-22T09:34:27;155758.22;;;26.94;75.61
61908;BME280;47864;52.526;19.672;2023-06-22T09:36:28;155703.25;;;26.72;71.35
61908;BME280;47864;52.526;19.672;2023-06-22T09:38:30;155713.50;;;26.76;74.35
61908;BME280;47864;52.526;19.672;2023-06-22T09:40:32;155698.13;;;26.70;73.92
61908;BME280;47864;52.526;19.672;2023-06-22T09:42:33;155733.94;;;26.84;71.80
61908;BME280;47864;52.526;19.672;2023-06-22T09:44:35;155712.22;;;26.76;73.59
61908;BME280;47864;52.526;19.672;2023-06-22T09:46:36;155673.84;;;26.61;72.32
61908;BME280;47864;52.526;19.672;2023-06-22T09:48:38;155612.53;;;26.36;72.44
61908;BME280;47864;52.526;19.672;2023-06-22T09:50:41;155595.94;;;26.30;72.13
61908;BME280;47864;52.526;19.672;2023-06-22T09:52:42;155652.13;;;26.52;70.27
61908;BME280;47864;52.526;19.672;2023-06-22T09:54:48;155698.13;;;26.70;73.33
61908;BME280;47864;52.526;19.672;2023-06-22T09:56:50;155705.81;;;26.73;68.96
61908;BME280;47864;52.526;19.672;2023-06-22T09:58:52;155737.72;;;26.86;70.05
61908;BME280;47864;52.526;19.672;2023-06-22T10:00:55;155750.59;;;26.91;71.45
61908;BME280;47864;52.526;19.672;2023-06-22T10:02:57;155810.63;;;27.15;69.67
61908;BME280;47864;52.526;19.672;2023-06-22T10:05:02;155786.34;;;27.05;66.32
61908;BME280;47864;52.526;19.672;2023-06-22T10:07:04;155742.84;;;26.88;64.33
61908;BME280;47864;52.526;19.672;2023-06-22T10:09:07;155713.50;;;26.76;63.24
61908;BME280;47864;52.526;19.672;2023-06-22T10:11:09;155753.16;;;26.92;65.36
61908;BME280;47864;52.526;19.672;2023-06-22T10:13:10;155772.31;;;27.00;64.87
61908;BME280;47864;52.526;19.672;2023-06-22T10:15:12;155717.28;;;26.78;64.80
61908;BME280;47864;52.526;19.672;2023-06-22T10:17:14;155751.88;;;26.92;65.33
61908;BME280;47864;52.526;19.672;2023-06-22T10:19:16;155728.81;;;26.82;62.35
61908;BME280;47864;52.526;19.672;2023-06-22T10:21:18;155838.78;;;27.26;63.81
61908;BME280;47864;52.526;19.672;2023-06-22T10:23:20;155836.22;;;27.25;61.92
61908;BME280;47864;52.526;19.672;2023-06-22T10:25:22;155902.63;;;27.51;60.97
61908;BME280;47864;52.526;19.672;2023-06-22T10:27:23;155896.28;;;27.49;60.54
61908;BME280;47864;52.526;19.672;2023-06-22T10:29:25;155822.13;;;27.19;61.56
61908;BME280;47864;52.526;19.672;2023-06-22T10:31:27;155880.91;;;27.43;60.27